createdAt,value
2022-11-20T20:22:32.693Z,91.40
2022-11-20T20:24:44.174Z,87.56
2022-11-20T20:26:52.352Z,83.58
2022-11-20T20:29:02.739Z,85.79
2022-11-20T20:31:12.462Z,81.47
2022-11-20T20:33:21.651Z,95.01
2022-11-20T20:35:29.748Z,79.13
2022-11-20T20:47:01.146Z,93.46
2022-11-20T20:49:07.978Z,90.65
2022-11-20T20:51:14.735Z,93.34
2022-11-20T20:53:20.818Z,81.39
2022-11-20T20:55:34.032Z,87.23
2022-11-20T20:57:40.597Z,69.32
2022-11-20T20:59:48.994Z,79.41
2022-11-20T21:01:59.853Z,56.06
2022-11-20T21:04:05.845Z,79.42
2022-11-20T21:06:14.764Z,84.34
2022-11-20T21:08:25.584Z,94.80
2022-11-20T21:10:31.497Z,79.75
2022-11-20T21:12:38.825Z,66.92
2022-11-20T21:14:48.202Z,60.38
2022-11-20T21:16:54.257Z,60.23
2022-11-20T21:19:00.258Z,69.79
2022-11-20T21:21:32.369Z,74.55
2022-11-20T21:23:39.969Z,74.34
2022-11-20T21:25:46.040Z,78.69
2022-11-20T21:27:53.707Z,76.07
2022-11-20T21:30:08.881Z,66.72
2022-11-20T21:32:16.099Z,64.68
2022-11-20T21:34:26.094Z,69.79
2022-11-20T21:36:34.970Z,74.24
2022-11-20T21:38:40.704Z,66.84
2022-11-20T21:40:47.428Z,70.88
2022-11-20T21:42:53.329Z,67.54
2022-11-20T21:45:02.712Z,65.82
2022-11-20T21:47:11.624Z,75.06
2022-11-20T21:49:18.492Z,76.09
2022-11-20T21:51:33.268Z,71.50
2022-11-20T21:53:40.754Z,72.95
2022-11-20T21:55:46.706Z,80.40
2022-11-20T21:57:54.825Z,77.59
2022-11-20T22:00:04.112Z,70.54
2022-11-20T22:02:15.928Z,69.95
2022-11-20T22:04:23.099Z,81.95
2022-11-20T22:06:35.890Z,69.61
2022-11-20T22:08:42.562Z,70.44
2022-11-20T22:11:00.853Z,67.26
2022-11-20T22:13:20.111Z,63.87
2022-11-20T22:15:53.567Z,73.57
2022-11-20T22:18:06.853Z,73.17
2022-11-20T22:20:14.525Z,67.12
2022-11-20T22:22:20.325Z,67.53
2022-11-20T22:24:26.897Z,67.38
2022-11-20T22:26:40.709Z,66.75
2022-11-20T22:28:50.626Z,63.52
2022-11-20T22:31:01.750Z,64.98
2022-11-20T22:33:17.771Z,66.23
2022-11-20T22:35:29.486Z,65.33
2022-11-20T22:37:35.299Z,60.13
2022-11-20T22:39:42.024Z,59.21
2022-11-20T22:41:47.839Z,63.16
2022-11-20T22:43:58.318Z,63.62
2022-11-20T22:46:14.737Z,62.85
2022-11-20T22:48:20.480Z,55.17
2022-11-20T22:50:26.278Z,55.15
2022-11-20T22:52:32.982Z,57.44
2022-11-20T22:54:38.908Z,55.48
2022-11-20T22:56:45.815Z,58.10
2022-11-20T22:58:55.519Z,59.08
2022-11-20T23:01:17.275Z,56.28
2022-11-20T23:03:23.173Z,60.52
2022-11-20T23:05:29.899Z,57.20
2022-11-20T23:07:40.726Z,59.85
2022-11-20T23:09:50.153Z,58.02
2022-11-20T23:11:56.820Z,59.48
2022-11-20T23:14:06.610Z,57.98
2022-11-20T23:16:18.149Z,57.84
2022-11-20T23:18:32.890Z,58.08
2022-11-20T23:20:40.677Z,57.54
2022-11-20T23:22:46.521Z,59.04
2022-11-20T23:24:53.211Z,55.72
2022-11-20T23:26:58.940Z,55.54
2022-11-20T23:29:05.915Z,52.84
2022-11-20T23:31:17.544Z,54.88
2022-11-20T23:33:23.255Z,52.50
2022-11-20T23:35:28.962Z,53.25
2022-11-20T23:37:36.134Z,55.60
2022-11-20T23:39:41.889Z,59.09
2022-11-20T23:41:47.662Z,59.57
2022-11-20T23:43:55.057Z,59.68
2022-11-20T23:46:06.230Z,61.76
2022-11-20T23:48:15.802Z,56.11
2022-11-20T23:50:22.283Z,52.69
2022-11-20T23:52:28.005Z,56.63
2022-11-20T23:54:33.667Z,52.92
2022-11-20T23:56:40.202Z,50.22
2022-11-20T23:58:46.758Z,54.58
